METAR AND TAF INFORMATION
METAR FOR LTFJ
ADDS - METARS form results

(0449 UTC 26 February 2020)
Data provider http://aviationweather.gov/metar/data/
 
METAR text: LTFJ 260420Z 26007KT 9999 FEW013 09/M01 Q1010 NOSIG RMK RWY24 22005KT
Conditions at: LTFJ (SABIHA GOKCEN , TR) observed 0420 UTC 26 February 2020
Temperature: 9.0°C (48°F)
Dewpoint: -1.0°C (30°F) [RH = 49%]
Pressure (altimeter): 29.82 inches Hg (1010.0 mb)
Winds: from the W (260 degrees) at 8 MPH (7 knots; 3.6 m/s)
Visibility: 6 or more miles (10+ km)
Ceiling: at least 12,000 feet AGL
Clouds: few clouds at 1300 feet AGL
Weather: no significant weather observed at this time

METAR text: LTFJ 260350Z 25005KT CAVOK 09/M01 Q1010 NOSIG RMK RWY24 22005KT
Conditions at: LTFJ (SABIHA GOKCEN , TR) observed 0350 UTC 26 February 2020
Temperature: 9.0°C (48°F)
Dewpoint: -1.0°C (30°F) [RH = 49%]
Pressure (altimeter): 29.82 inches Hg (1010.0 mb)
Winds: from the WSW (250 degrees) at 6 MPH (5 knots; 2.6 m/s)
Visibility: 6 or more miles (10+ km)
Ceiling: ceiling and visibility are OK
Clouds: unknown
Weather: no significant weather observed at this time

Forecast for: LTFJ (SABIHA GOKCEN , TR)
Text: TAF LTFJ 252240Z 2600/2624 VRB02KT CAVOK
Forecast period: 0000 to 0400 UTC 26 February 2020
Forecast type: FROM: standard forecast or significant change
Winds: variable direction winds at 2 MPH (2 knots; 1.0 m/s)
Visibility: 6 or more miles 10+ km)
Ceiling: unknown
Clouds: missing
Weather: NSW  (no significant weather)
Text: BECMG 2604/2607 18012KT
Forecast period: 0400 to 0900 UTC 26 February 2020
Forecast type: BECOMING: Conditions expected to become as follows by 0700 UTC 26 February 2020
Winds: from the S (180 degrees) at 14 MPH (12 knots; 6.2 m/s)
Visibility: 6 or more miles 10+ km)
Ceiling: unknown
Clouds: missing
Weather: NSW  (no significant weather)
Text: BECMG 2609/2612 24017G28KT
Forecast period: 0900 UTC 26 February 2020 to 0000 UTC 27 February 2020
Forecast type: BECOMING: Conditions expected to become as follows by 1200 UTC 26 February 2020
Winds: from the WSW (240 degrees) at 20 MPH (17 knots; 8.7 m/s)
gusting to 32 MPH (28 knots; 14.4 m/s)
Visibility: 6 or more miles 10+ km)
Ceiling: unknown
Clouds: missing
Weather: NSW  (no significant weather)

 AIRPORT MAP

 RUNWAY INFORMATION
Runway 06 Runway length 9843 ft Runway width 148 ft
Runway elevation 293 ft Runway displaced threshold 0 ft Runway heading 64
Runway 24 Runway length 9843 ft Runway width 148 ft
Runway elevation 304 ft Runway displaced threshold 0 ft Runway heading 244

 AIRPORT FREQUENCIES
Type ATIS Name ATIS Frequency 128.55 MHZ
Type GND Name GND Frequency 121.75 MHZ
Type TWR Name TWR Frequency 37.877 MHZ
Type TWR Name TWR Frequency 118.8 MHZ

 AIRPORT NEAR NAVIGATION AIDS
Type NDB Name Sabiha Gokcen Frequency 347 KHZ
Type VOR-DME Name Sabiha Gokcen Frequency 108800 KHZ



Powered by Virtual Airlines Manager [v2.6.2]